sensor_id;sensor_type;location;lat;lon;timestamp;P1;durP1;ratioP1;P2;durP2;ratioP2
22026;SDS011;11177;50.966;10.070;2023-08-31T00:02:07;8.73;;;6.15;;
22026;SDS011;11177;50.966;10.070;2023-08-31T00:04:36;8.70;;;6.40;;
22026;SDS011;11177;50.966;10.070;2023-08-31T00:07:03;7.45;;;6.30;;
22026;SDS011;11177;50.966;10.070;2023-08-31T00:09:30;8.25;;;6.15;;
22026;SDS011;11177;50.966;10.070;2023-08-31T00:11:57;7.07;;;6.05;;
22026;SDS011;11177;50.966;10.070;2023-08-31T00:14:24;7.07;;;6.00;;
22026;SDS011;11177;50.966;10.070;2023-08-31T00:16:53;5.38;;;4.82;;
22026;SDS011;11177;50.966;10.070;2023-08-31T00:19:20;9.85;;;4.53;;
22026;SDS011;11177;50.966;10.070;2023-08-31T00:21:46;6.53;;;4.72;;
22026;SDS011;11177;50.966;10.070;2023-08-31T00:24:15;6.30;;;4.72;;
22026;SDS011;11177;50.966;10.070;2023-08-31T00:26:42;8.15;;;4.95;;
22026;SDS011;11177;50.966;10.070;2023-08-31T00:29:09;5.50;;;4.53;;
22026;SDS011;11177;50.966;10.070;2023-08-31T00:31:40;9.50;;;5.57;;
22026;SDS011;11177;50.966;10.070;2023-08-31T00:34:08;6.95;;;5.85;;
22026;SDS011;11177;50.966;10.070;2023-08-31T00:36:41;7.05;;;6.10;;
22026;SDS011;11177;50.966;10.070;2023-08-31T00:39:08;8.30;;;6.15;;
22026;SDS011;11177;50.966;10.070;2023-08-31T00:41:37;10.68;;;7.03;;
22026;SDS011;11177;50.966;10.070;2023-08-31T00:44:04;8.38;;;7.38;;
22026;SDS011;11177;50.966;10.070;2023-08-31T00:46:31;8.45;;;7.10;;
22026;SDS011;11177;50.966;10.070;2023-08-31T00:48:59;7.65;;;6.65;;
22026;SDS011;11177;50.966;10.070;2023-08-31T00:51:27;7.93;;;7.10;;
22026;SDS011;11177;50.966;10.070;2023-08-31T00:53:53;8.60;;;7.50;;
22026;SDS011;11177;50.966;10.070;2023-08-31T00:56:21;9.75;;;7.45;;
22026;SDS011;11177;50.966;10.070;2023-08-31T00:58:48;9.32;;;7.13;;
22026;SDS011;11177;50.966;10.070;2023-08-31T01:01:36;8.55;;;7.45;;
22026;SDS011;11177;50.966;10.070;2023-08-31T01:04:12;8.25;;;7.25;;
22026;SDS011;11177;50.966;10.070;2023-08-31T01:06:50;10.73;;;7.75;;
22026;SDS011;11177;50.966;10.070;2023-08-31T01:09:27;8.55;;;7.05;;
22026;SDS011;11177;50.966;10.070;2023-08-31T01:12:03;11.85;;;8.23;;
22026;SDS011;11177;50.966;10.070;2023-08-31T01:14:44;11.02;;;8.65;;
22026;SDS011;11177;50.966;10.070;2023-08-31T01:17:14;9.75;;;7.97;;
22026;SDS011;11177;50.966;10.070;2023-08-31T01:19:48;10.65;;;8.05;;
22026;SDS011;11177;50.966;10.070;2023-08-31T01:25:08;11.45;;;9.00;;
22026;SDS011;11177;50.966;10.070;2023-08-31T01:27:36;13.38;;;8.95;;
22026;SDS011;11177;50.966;10.070;2023-08-31T01:30:04;10.05;;;8.70;;
22026;SDS011;11177;50.966;10.070;2023-08-31T01:32:36;10.27;;;8.85;;
22026;SDS011;11177;50.966;10.070;2023-08-31T01:35:03;12.77;;;10.50;;
22026;SDS011;11177;50.966;10.070;2023-08-31T01:43:30;13.95;;;9.13;;
22026;SDS011;11177;50.966;10.070;2023-08-31T01:45:58;13.63;;;9.90;;
22026;SDS011;11177;50.966;10.070;2023-08-31T01:48:25;12.93;;;9.80;;
22026;SDS011;11177;50.966;10.070;2023-08-31T01:50:51;13.85;;;10.63;;
22026;SDS011;11177;50.966;10.070;2023-08-31T01:53:18;14.73;;;9.82;;
22026;SDS011;11177;50.966;10.070;2023-08-31T01:55:45;11.88;;;9.48;;
22026;SDS011;11177;50.966;10.070;2023-08-31T01:58:12;13.30;;;9.75;;
22026;SDS011;11177;50.966;10.070;2023-08-31T02:00:39;13.73;;;9.45;;
22026;SDS011;11177;50.966;10.070;2023-08-31T02:03:06;13.13;;;9.40;;
22026;SDS011;11177;50.966;10.070;2023-08-31T02:05:34;12.52;;;9.60;;
22026;SDS011;11177;50.966;10.070;2023-08-31T02:08:01;11.68;;;8.73;;
22026;SDS011;11177;50.966;10.070;2023-08-31T02:10:28;12.63;;;9.13;;
22026;SDS011;11177;50.966;10.070;2023-08-31T02:12:56;12.40;;;9.30;;
22026;SDS011;11177;50.966;10.070;2023-08-31T02:15:23;15.77;;;9.90;;
22026;SDS011;11177;50.966;10.070;2023-08-31T02:17:50;12.80;;;10.23;;
22026;SDS011;11177;50.966;10.070;2023-08-31T02:20:17;14.55;;;10.30;;
22026;SDS011;11177;50.966;10.070;2023-08-31T02:22:45;14.20;;;10.57;;
22026;SDS011;11177;50.966;10.070;2023-08-31T02:25:12;16.73;;;11.00;;
22026;SDS011;11177;50.966;10.070;2023-08-31T02:27:40;16.00;;;11.30;;
22026;SDS011;11177;50.966;10.070;2023-08-31T02:30:07;16.42;;;10.80;;
22026;SDS011;11177;50.966;10.070;2023-08-31T02:32:35;13.75;;;10.52;;
22026;SDS011;11177;50.966;10.070;2023-08-31T02:35:02;16.17;;;11.20;;
22026;SDS011;11177;50.966;10.070;2023-08-31T02:37:29;12.32;;;10.20;;
22026;SDS011;11177;50.966;10.070;2023-08-31T02:39:56;11.45;;;10.00;;
22026;SDS011;11177;50.966;10.070;2023-08-31T02:42:26;11.82;;;10.13;;
22026;SDS011;11177;50.966;10.070;2023-08-31T02:44:53;14.30;;;10.95;;
22026;SDS011;11177;50.966;10.070;2023-08-31T02:47:20;12.68;;;10.38;;
22026;SDS011;11177;50.966;10.070;2023-08-31T02:49:47;12.73;;;10.05;;
22026;SDS011;11177;50.966;10.070;2023-08-31T02:52:14;12.00;;;10.18;;
22026;SDS011;11177;50.966;10.070;2023-08-31T02:54:41;15.20;;;10.20;;
22026;SDS011;11177;50.966;10.070;2023-08-31T02:57:08;14.68;;;10.50;;
22026;SDS011;11177;50.966;10.070;2023-08-31T02:59:35;13.75;;;10.05;;
22026;SDS011;11177;50.966;10.070;2023-08-31T03:02:02;14.52;;;10.13;;
22026;SDS011;11177;50.966;10.070;2023-08-31T03:04:30;13.05;;;10.63;;
22026;SDS011;11177;50.966;10.070;2023-08-31T03:06:57;15.70;;;10.57;;
22026;SDS011;11177;50.966;10.070;2023-08-31T03:09:24;13.73;;;10.77;;
22026;SDS011;11177;50.966;10.070;2023-08-31T03:11:51;16.63;;;11.32;;
22026;SDS011;11177;50.966;10.070;2023-08-31T03:14:18;17.42;;;10.77;;
22026;SDS011;11177;50.966;10.070;2023-08-31T03:16:45;17.85;;;10.90;;
22026;SDS011;11177;50.966;10.070;2023-08-31T03:19:12;12.80;;;9.60;;
22026;SDS011;11177;50.966;10.070;2023-08-31T03:21:38;13.57;;;9.60;;
22026;SDS011;11177;50.966;10.070;2023-08-31T03:24:06;14.48;;;9.90;;
22026;SDS011;11177;50.966;10.070;2023-08-31T03:26:34;19.00;;;11.10;;
22026;SDS011;11177;50.966;10.070;2023-08-31T03:29:01;16.60;;;11.05;;
22026;SDS011;11177;50.966;10.070;2023-08-31T03:31:29;16.88;;;10.93;;
22026;SDS011;11177;50.966;10.070;2023-08-31T03:33:56;15.40;;;10.85;;
22026;SDS011;11177;50.966;10.070;2023-08-31T03:36:23;17.08;;;10.85;;
22026;SDS011;11177;50.966;10.070;2023-08-31T03:38:50;12.75;;;10.65;;
22026;SDS011;11177;50.966;10.070;2023-08-31T03:41:17;12.88;;;9.52;;
22026;SDS011;11177;50.966;10.070;2023-08-31T03:43:44;14.77;;;9.77;;
22026;SDS011;11177;50.966;10.070;2023-08-31T03:46:11;15.85;;;9.25;;
22026;SDS011;11177;50.966;10.070;2023-08-31T03:48:38;11.73;;;9.32;;
22026;SDS011;11177;50.966;10.070;2023-08-31T03:51:05;14.13;;;9.40;;
22026;SDS011;11177;50.966;10.070;2023-08-31T03:53:31;11.05;;;8.85;;
22026;SDS011;11177;50.966;10.070;2023-08-31T03:55:58;12.25;;;9.05;;
22026;SDS011;11177;50.966;10.070;2023-08-31T03:58:25;13.43;;;9.25;;
22026;SDS011;11177;50.966;10.070;2023-08-31T04:00:52;13.95;;;9.88;;
22026;SDS011;11177;50.966;10.070;2023-08-31T04:03:19;13.90;;;9.52;;
22026;SDS011;11177;50.966;10.070;2023-08-31T04:05:46;11.43;;;9.88;;
22026;SDS011;11177;50.966;10.070;2023-08-31T04:08:13;11.90;;;9.77;;
22026;SDS011;11177;50.966;10.070;2023-08-31T04:10:40;10.80;;;9.63;;
22026;SDS011;11177;50.966;10.070;2023-08-31T04:13:07;15.10;;;11.48;;
22026;SDS011;11177;50.966;10.070;2023-08-31T04:15:34;11.93;;;9.75;;
22026;SDS011;11177;50.966;10.070;2023-08-31T04:18:02;17.15;;;10.80;;
22026;SDS011;11177;50.966;10.070;2023-08-31T04:20:29;12.93;;;9.88;;
22026;SDS011;11177;50.966;10.070;2023-08-31T04:22:56;14.50;;;10.45;;
22026;SDS011;11177;50.966;10.070;2023-08-31T04:25:22;14.65;;;10.10;;
22026;SDS011;11177;50.966;10.070;2023-08-31T04:27:50;13.05;;;10.00;;
22026;SDS011;11177;50.966;10.070;2023-08-31T04:30:16;17.63;;;10.18;;
22026;SDS011;11177;50.966;10.070;2023-08-31T04:32:44;14.70;;;10.23;;
22026;SDS011;11177;50.966;10.070;2023-08-31T04:35:11;14.80;;;10.32;;
22026;SDS011;11177;50.966;10.070;2023-08-31T04:37:37;15.18;;;11.65;;
22026;SDS011;11177;50.966;10.070;2023-08-31T04:40:05;17.17;;;11.55;;
22026;SDS011;11177;50.966;10.070;2023-08-31T04:42:32;12.98;;;10.23;;
22026;SDS011;11177;50.966;10.070;2023-08-31T04:44:59;14.40;;;11.18;;
22026;SDS011;11177;50.966;10.070;2023-08-31T04:47:26;16.30;;;11.10;;
22026;SDS011;11177;50.966;10.070;2023-08-31T04:49:53;16.85;;;12.15;;
22026;SDS011;11177;50.966;10.070;2023-08-31T04:52:20;17.38;;;11.75;;
22026;SDS011;11177;50.966;10.070;2023-08-31T04:54:47;16.85;;;11.65;;
22026;SDS011;11177;50.966;10.070;2023-08-31T04:57:14;17.50;;;11.77;;
22026;SDS011;11177;50.966;10.070;2023-08-31T04:59:41;20.42;;;12.38;;
22026;SDS011;11177;50.966;10.070;2023-08-31T05:02:08;19.00;;;12.63;;
22026;SDS011;11177;50.966;10.070;2023-08-31T05:04:35;18.38;;;12.68;;
22026;SDS011;11177;50.966;10.070;2023-08-31T05:07:02;16.08;;;12.50;;
22026;SDS011;11177;50.966;10.070;2023-08-31T05:09:30;20.05;;;13.57;;
22026;SDS011;11177;50.966;10.070;2023-08-31T05:12:01;20.55;;;14.52;;
22026;SDS011;11177;50.966;10.070;2023-08-31T05:14:29;16.60;;;12.25;;
22026;SDS011;11177;50.966;10.070;2023-08-31T05:16:56;13.30;;;11.18;;
22026;SDS011;11177;50.966;10.070;2023-08-31T05:19:23;19.08;;;12.35;;
22026;SDS011;11177;50.966;10.070;2023-08-31T05:21:53;17.42;;;11.90;;
22026;SDS011;11177;50.966;10.070;2023-08-31T05:24:20;15.35;;;12.52;;
22026;SDS011;11177;50.966;10.070;2023-08-31T05:26:47;18.23;;;13.18;;
22026;SDS011;11177;50.966;10.070;2023-08-31T05:29:14;16.25;;;12.93;;
22026;SDS011;11177;50.966;10.070;2023-08-31T05:31:41;19.80;;;13.35;;
22026;SDS011;11177;50.966;10.070;2023-08-31T05:34:09;21.13;;;14.10;;
22026;SDS011;11177;50.966;10.070;2023-08-31T05:36:36;24.63;;;14.43;;
22026;SDS011;11177;50.966;10.070;2023-08-31T05:39:03;22.83;;;14.60;;
22026;SDS011;11177;50.966;10.070;2023-08-31T05:41:30;21.48;;;13.45;;
22026;SDS011;11177;50.966;10.070;2023-08-31T05:43:57;22.77;;;13.80;;
22026;SDS011;11177;50.966;10.070;2023-08-31T05:46:25;21.10;;;14.20;;
22026;SDS011;11177;50.966;10.070;2023-08-31T05:48:52;28.80;;;14.70;;
22026;SDS011;11177;50.966;10.070;2023-08-31T05:51:19;26.40;;;14.98;;
22026;SDS011;11177;50.966;10.070;2023-08-31T05:53:46;21.70;;;14.15;;
22026;SDS011;11177;50.966;10.070;2023-08-31T05:56:13;25.15;;;14.45;;
22026;SDS011;11177;50.966;10.070;2023-08-31T05:58:40;21.77;;;14.40;;
22026;SDS011;11177;50.966;10.070;2023-08-31T06:01:07;24.92;;;14.88;;
22026;SDS011;11177;50.966;10.070;2023-08-31T06:03:34;21.70;;;14.45;;
22026;SDS011;11177;50.966;10.070;2023-08-31T06:06:02;25.95;;;15.05;;
22026;SDS011;11177;50.966;10.070;2023-08-31T06:08:30;21.38;;;14.73;;
22026;SDS011;11177;50.966;10.070;2023-08-31T06:10:57;22.15;;;14.30;;
22026;SDS011;11177;50.966;10.070;2023-08-31T06:13:24;23.75;;;15.80;;
22026;SDS011;11177;50.966;10.070;2023-08-31T06:15:50;29.27;;;16.55;;
22026;SDS011;11177;50.966;10.070;2023-08-31T06:18:17;27.83;;;16.90;;
22026;SDS011;11177;50.966;10.070;2023-08-31T06:20:44;29.75;;;16.98;;
22026;SDS011;11177;50.966;10.070;2023-08-31T06:23:11;32.15;;;15.65;;
22026;SDS011;11177;50.966;10.070;2023-08-31T06:25:39;19.98;;;13.07;;
22026;SDS011;11177;50.966;10.070;2023-08-31T06:28:06;18.77;;;12.90;;
22026;SDS011;11177;50.966;10.070;2023-08-31T06:30:35;19.55;;;12.32;;
22026;SDS011;11177;50.966;10.070;2023-08-31T06:33:02;18.15;;;11.77;;
22026;SDS011;11177;50.966;10.070;2023-08-31T06:35:29;18.52;;;11.07;;
22026;SDS011;11177;50.966;10.070;2023-08-31T06:37:57;16.38;;;10.18;;
22026;SDS011;11177;50.966;10.070;2023-08-31T06:40:24;14.73;;;10.57;;
22026;SDS011;11177;50.966;10.070;2023-08-31T06:42:51;14.27;;;10.00;;
22026;SDS011;11177;50.966;10.070;2023-08-31T06:45:18;13.23;;;9.77;;
22026;SDS011;11177;50.966;10.070;2023-08-31T06:47:45;15.07;;;9.57;;
22026;SDS011;11177;50.966;10.070;2023-08-31T06:50:12;14.57;;;9.80;;
22026;SDS011;11177;50.966;10.070;2023-08-31T06:52:39;12.95;;;9.10;;
22026;SDS011;11177;50.966;10.070;2023-08-31T06:55:07;14.57;;;9.13;;
22026;SDS011;11177;50.966;10.070;2023-08-31T06:57:35;12.48;;;8.85;;
22026;SDS011;11177;50.966;10.070;2023-08-31T07:00:03;10.65;;;7.57;;
22026;SDS011;11177;50.966;10.070;2023-08-31T07:02:32;11.57;;;7.72;;
22026;SDS011;11177;50.966;10.070;2023-08-31T07:05:01;10.85;;;7.13;;
22026;SDS011;11177;50.966;10.070;2023-08-31T07:07:28;9.55;;;7.00;;
22026;SDS011;11177;50.966;10.070;2023-08-31T07:09:55;11.52;;;7.22;;
22026;SDS011;11177;50.966;10.070;2023-08-31T07:12:22;12.40;;;7.53;;
22026;SDS011;11177;50.966;10.070;2023-08-31T07:14:49;10.57;;;7.30;;
22026;SDS011;11177;50.966;10.070;2023-08-31T07:17:19;9.52;;;6.88;;
22026;SDS011;11177;50.966;10.070;2023-08-31T07:19:49;11.95;;;6.90;;
22026;SDS011;11177;50.966;10.070;2023-08-31T07:22:16;10.43;;;6.85;;
22026;SDS011;11177;50.966;10.070;2023-08-31T07:24:43;11.15;;;6.10;;
22026;SDS011;11177;50.966;10.070;2023-08-31T07:27:11;8.40;;;5.93;;
22026;SDS011;11177;50.966;10.070;2023-08-31T07:29:38;9.52;;;5.63;;
22026;SDS011;11177;50.966;10.070;2023-08-31T07:32:05;7.35;;;4.85;;
22026;SDS011;11177;50.966;10.070;2023-08-31T07:34:33;9.93;;;4.85;;
22026;SDS011;11177;50.966;10.070;2023-08-31T07:37:00;7.07;;;4.40;;
22026;SDS011;11177;50.966;10.070;2023-08-31T07:39:27;7.30;;;4.63;;
22026;SDS011;11177;50.966;10.070;2023-08-31T07:41:55;6.05;;;4.22;;
22026;SDS011;11177;50.966;10.070;2023-08-31T07:44:23;7.03;;;4.00;;
22026;SDS011;11177;50.966;10.070;2023-08-31T07:46:50;7.22;;;4.07;;
22026;SDS011;11177;50.966;10.070;2023-08-31T07:49:17;4.78;;;3.60;;
22026;SDS011;11177;50.966;10.070;2023-08-31T07:51:44;4.75;;;3.85;;
22026;SDS011;11177;50.966;10.070;2023-08-31T07:54:18;6.03;;;3.60;;
22026;SDS011;11177;50.966;10.070;2023-08-31T07:59:12;7.15;;;3.40;;
22026;SDS011;11177;50.966;10.070;2023-08-31T08:01:40;4.60;;;3.22;;
22026;SDS011;11177;50.966;10.070;2023-08-31T08:04:13;3.92;;;3.10;;
22026;SDS011;11177;50.966;10.070;2023-08-31T08:06:40;4.03;;;3.17;;
22026;SDS011;11177;50.966;10.070;2023-08-31T08:09:07;6.35;;;3.33;;
22026;SDS011;11177;50.966;10.070;2023-08-31T08:11:34;4.25;;;3.17;;
22026;SDS011;11177;50.966;10.070;2023-08-31T08:14:01;4.10;;;2.75;;
22026;SDS011;11177;50.966;10.070;2023-08-31T08:16:29;3.70;;;2.70;;
22026;SDS011;11177;50.966;10.070;2023-08-31T08:18:56;4.40;;;2.97;;
22026;SDS011;11177;50.966;10.070;2023-08-31T08:21:23;3.13;;;2.80;;
22026;SDS011;11177;50.966;10.070;2023-08-31T08:23:50;5.35;;;2.50;;
22026;SDS011;11177;50.966;10.070;2023-08-31T08:26:18;6.03;;;2.92;;
22026;SDS011;11177;50.966;10.070;2023-08-31T08:28:45;4.20;;;2.75;;
22026;SDS011;11177;50.966;10.070;2023-08-31T08:31:13;3.80;;;2.50;;
22026;SDS011;11177;50.966;10.070;2023-08-31T08:33:40;4.32;;;2.85;;
22026;SDS011;11177;50.966;10.070;2023-08-31T08:36:07;4.60;;;3.05;;
22026;SDS011;11177;50.966;10.070;2023-08-31T08:38:34;6.75;;;2.58;;
22026;SDS011;11177;50.966;10.070;2023-08-31T08:41:04;3.70;;;2.30;;
22026;SDS011;11177;50.966;10.070;2023-08-31T08:43:33;4.13;;;2.58;;
22026;SDS011;11177;50.966;10.070;2023-08-31T08:46:03;6.47;;;2.45;;
22026;SDS011;11177;50.966;10.070;2023-08-31T08:48:32;3.17;;;2.42;;
22026;SDS011;11177;50.966;10.070;2023-08-31T08:51:04;5.05;;;2.45;;
22026;SDS011;11177;50.966;10.070;2023-08-31T08:53:31;4.28;;;2.20;;
22026;SDS011;11177;50.966;10.070;2023-08-31T08:55:58;3.38;;;2.22;;
22026;SDS011;11177;50.966;10.070;2023-08-31T08:58:25;2.70;;;1.98;;
22026;SDS011;11177;50.966;10.070;2023-08-31T09:00:53;3.17;;;2.20;;
22026;SDS011;11177;50.966;10.070;2023-08-31T09:03:23;3.50;;;2.58;;
22026;SDS011;11177;50.966;10.070;2023-08-31T09:05:50;4.72;;;2.25;;
22026;SDS011;11177;50.966;10.070;2023-08-31T09:08:27;2.58;;;2.13;;
22026;SDS011;11177;50.966;10.070;2023-08-31T09:10:55;4.13;;;2.08;;
22026;SDS011;11177;50.966;10.070;2023-08-31T09:13:27;3.70;;;1.85;;
22026;SDS011;11177;50.966;10.070;2023-08-31T09:15:55;5.10;;;2.10;;
22026;SDS011;11177;50.966;10.070;2023-08-31T09:18:29;4.85;;;2.40;;
22026;SDS011;11177;50.966;10.070;2023-08-31T09:20:59;2.20;;;1.92;;
22026;SDS011;11177;50.966;10.070;2023-08-31T09:23:27;4.38;;;2.10;;
22026;SDS011;11177;50.966;10.070;2023-08-31T09:25:55;5.32;;;2.17;;
22026;SDS011;11177;50.966;10.070;2023-08-31T09:28:23;4.05;;;1.95;;
22026;SDS011;11177;50.966;10.070;2023-08-31T09:31:03;4.97;;;2.17;;
22026;SDS011;11177;50.966;10.070;2023-08-31T09:33:31;3.38;;;2.10;;
22026;SDS011;11177;50.966;10.070;2023-08-31T09:35:59;4.25;;;2.40;;
22026;SDS011;11177;50.966;10.070;2023-08-31T09:38:27;4.55;;;2.20;;
22026;SDS011;11177;50.966;10.070;2023-08-31T09:41:04;3.88;;;2.88;;
22026;SDS011;11177;50.966;10.070;2023-08-31T09:43:32;5.07;;;2.53;;
22026;SDS011;11177;50.966;10.070;2023-08-31T09:45:59;3.95;;;2.35;;
22026;SDS011;11177;50.966;10.070;2023-08-31T09:48:27;3.58;;;2.00;;
22026;SDS011;11177;50.966;10.070;2023-08-31T09:50:55;5.60;;;2.05;;
22026;SDS011;11177;50.966;10.070;2023-08-31T09:53:25;4.80;;;2.03;;
22026;SDS011;11177;50.966;10.070;2023-08-31T09:55:54;3.75;;;2.00;;
22026;SDS011;11177;50.966;10.070;2023-08-31T09:58:23;3.80;;;2.00;;
22026;SDS011;11177;50.966;10.070;2023-08-31T10:00:51;2.28;;;2.05;;
22026;SDS011;11177;50.966;10.070;2023-08-31T10:03:20;3.38;;;2.10;;
22026;SDS011;11177;50.966;10.070;2023-08-31T10:05:48;4.68;;;2.17;;
22026;SDS011;11177;50.966;10.070;2023-08-31T10:08:17;4.22;;;2.10;;
22026;SDS011;11177;50.966;10.070;2023-08-31T10:10:44;3.28;;;2.30;;
22026;SDS011;11177;50.966;10.070;2023-08-31T10:13:12;2.72;;;1.80;;
22026;SDS011;11177;50.966;10.070;2023-08-31T10:15:39;2.10;;;1.90;;
22026;SDS011;11177;50.966;10.070;2023-08-31T10:18:08;5.68;;;2.15;;
22026;SDS011;11177;50.966;10.070;2023-08-31T10:20:35;4.18;;;2.00;;
22026;SDS011;11177;50.966;10.070;2023-08-31T10:23:03;4.35;;;2.65;;
22026;SDS011;11177;50.966;10.070;2023-08-31T10:28:38;2.97;;;1.90;;
22026;SDS011;11177;50.966;10.070;2023-08-31T10:33:44;4.28;;;1.60;;
22026;SDS011;11177;50.966;10.070;2023-08-31T10:36:21;2.42;;;1.60;;
22026;SDS011;11177;50.966;10.070;2023-08-31T10:39:01;4.25;;;1.52;;
22026;SDS011;11177;50.966;10.070;2023-08-31T10:41:35;1.67;;;1.27;;
22026;SDS011;11177;50.966;10.070;2023-08-31T10:44:18;2.35;;;1.30;;
22026;SDS011;11177;50.966;10.070;2023-08-31T10:46:46;3.50;;;1.60;;
22026;SDS011;11177;50.966;10.070;2023-08-31T10:49:14;2.70;;;1.60;;
22026;SDS011;11177;50.966;10.070;2023-08-31T10:52:25;3.28;;;1.30;;
22026;SDS011;11177;50.966;10.070;2023-08-31T10:54:57;2.55;;;1.27;;
22026;SDS011;11177;50.966;10.070;2023-08-31T10:57:30;1.73;;;1.15;;
22026;SDS011;11177;50.966;10.070;2023-08-31T11:00:00;1.70;;;1.08;;
22026;SDS011;11177;50.966;10.070;2023-08-31T11:02:37;3.15;;;1.35;;
22026;SDS011;11177;50.966;10.070;2023-08-31T11:05:12;2.65;;;1.30;;
22026;SDS011;11177;50.966;10.070;2023-08-31T11:07:43;1.90;;;1.35;;
22026;SDS011;11177;50.966;10.070;2023-08-31T11:10:15;2.25;;;1.30;;
22026;SDS011;11177;50.966;10.070;2023-08-31T11:12:50;3.75;;;1.40;;
22026;SDS011;11177;50.966;10.070;2023-08-31T11:15:19;4.88;;;1.48;;
22026;SDS011;11177;50.966;10.070;2023-08-31T11:17:50;3.17;;;1.30;;
22026;SDS011;11177;50.966;10.070;2023-08-31T11:20:21;2.03;;;1.20;;
22026;SDS011;11177;50.966;10.070;2023-08-31T11:22:50;2.97;;;1.30;;
22026;SDS011;11177;50.966;10.070;2023-08-31T11:25:19;2.45;;;1.13;;
22026;SDS011;11177;50.966;10.070;2023-08-31T11:27:56;3.17;;;1.40;;
22026;SDS011;11177;50.966;10.070;2023-08-31T11:30:25;3.05;;;1.30;;
22026;SDS011;11177;50.966;10.070;2023-08-31T11:32:53;2.80;;;1.38;;
22026;SDS011;11177;50.966;10.070;2023-08-31T11:35:21;3.38;;;1.40;;
22026;SDS011;11177;50.966;10.070;2023-08-31T11:37:55;3.22;;;1.20;;
22026;SDS011;11177;50.966;10.070;2023-08-31T11:40:22;2.20;;;1.10;;
22026;SDS011;11177;50.966;10.070;2023-08-31T11:42:50;4.22;;;1.30;;
22026;SDS011;11177;50.966;10.070;2023-08-31T11:45:18;5.43;;;1.35;;
22026;SDS011;11177;50.966;10.070;2023-08-31T11:47:46;2.75;;;1.30;;
22026;SDS011;11177;50.966;10.070;2023-08-31T11:50:14;3.90;;;1.40;;
22026;SDS011;11177;50.966;10.070;2023-08-31T11:52:42;2.15;;;1.00;;
22026;SDS011;11177;50.966;10.070;2023-08-31T11:55:10;2.25;;;1.20;;
22026;SDS011;11177;50.966;10.070;2023-08-31T11:57:38;1.92;;;1.50;;
22026;SDS011;11177;50.966;10.070;2023-08-31T12:00:06;2.10;;;1.42;;
22026;SDS011;11177;50.966;10.070;2023-08-31T12:02:36;5.18;;;1.10;;
22026;SDS011;11177;50.966;10.070;2023-08-31T12:05:04;2.97;;;1.40;;
22026;SDS011;11177;50.966;10.070;2023-08-31T12:07:39;2.95;;;1.20;;
22026;SDS011;11177;50.966;10.070;2023-08-31T12:10:08;1.60;;;1.33;;
22026;SDS011;11177;50.966;10.070;2023-08-31T12:12:35;3.45;;;1.08;;
22026;SDS011;11177;50.966;10.070;2023-08-31T12:15:04;2.75;;;1.20;;
22026;SDS011;11177;50.966;10.070;2023-08-31T12:17:36;2.15;;;1.20;;
22026;SDS011;11177;50.966;10.070;2023-08-31T12:20:05;2.28;;;1.30;;
22026;SDS011;11177;50.966;10.070;2023-08-31T12:22:33;2.85;;;1.40;;
22026;SDS011;11177;50.966;10.070;2023-08-31T12:25:00;4.22;;;1.90;;
22026;SDS011;11177;50.966;10.070;2023-08-31T12:27:27;4.55;;;1.15;;
22026;SDS011;11177;50.966;10.070;2023-08-31T12:29:54;1.95;;;1.10;;
22026;SDS011;11177;50.966;10.070;2023-08-31T12:32:21;1.67;;;1.00;;
22026;SDS011;11177;50.966;10.070;2023-08-31T12:34:49;2.42;;;1.10;;
22026;SDS011;11177;50.966;10.070;2023-08-31T12:37:16;2.25;;;1.15;;
22026;SDS011;11177;50.966;10.070;2023-08-31T12:39:43;3.38;;;1.27;;
22026;SDS011;11177;50.966;10.070;2023-08-31T12:42:12;1.38;;;1.20;;
22026;SDS011;11177;50.966;10.070;2023-08-31T12:44:49;1.45;;;1.10;;
22026;SDS011;11177;50.966;10.070;2023-08-31T12:47:16;2.10;;;1.38;;
22026;SDS011;11177;50.966;10.070;2023-08-31T12:49:43;3.50;;;1.60;;
22026;SDS011;11177;50.966;10.070;2023-08-31T12:52:10;1.50;;;1.27;;
22026;SDS011;11177;50.966;10.070;2023-08-31T12:54:37;1.88;;;1.15;;
22026;SDS011;11177;50.966;10.070;2023-08-31T12:57:04;2.42;;;0.95;;
22026;SDS011;11177;50.966;10.070;2023-08-31T12:59:32;1.77;;;1.00;;
22026;SDS011;11177;50.966;10.070;2023-08-31T13:01:59;2.83;;;1.20;;
22026;SDS011;11177;50.966;10.070;2023-08-31T13:04:26;1.58;;;0.90;;
22026;SDS011;11177;50.966;10.070;2023-08-31T13:06:54;2.00;;;1.08;;
22026;SDS011;11177;50.966;10.070;2023-08-31T13:09:21;2.55;;;0.98;;
22026;SDS011;11177;50.966;10.070;2023-08-31T13:11:48;2.60;;;1.30;;
22026;SDS011;11177;50.966;10.070;2023-08-31T13:14:16;2.22;;;0.98;;
22026;SDS011;11177;50.966;10.070;2023-08-31T13:16:43;3.72;;;1.20;;
22026;SDS011;11177;50.966;10.070;2023-08-31T13:19:09;1.85;;;1.13;;
22026;SDS011;11177;50.966;10.070;2023-08-31T13:21:36;4.18;;;1.20;;
22026;SDS011;11177;50.966;10.070;2023-08-31T13:24:03;2.08;;;1.13;;
22026;SDS011;11177;50.966;10.070;2023-08-31T13:26:31;2.35;;;1.00;;
22026;SDS011;11177;50.966;10.070;2023-08-31T13:28:58;2.65;;;1.00;;
22026;SDS011;11177;50.966;10.070;2023-08-31T13:31:25;2.80;;;1.10;;
22026;SDS011;11177;50.966;10.070;2023-08-31T13:33:52;2.35;;;1.00;;
22026;SDS011;11177;50.966;10.070;2023-08-31T13:36:19;3.35;;;1.20;;
22026;SDS011;11177;50.966;10.070;2023-08-31T13:38:46;2.03;;;1.02;;
22026;SDS011;11177;50.966;10.070;2023-08-31T13:41:13;1.58;;;1.10;;
22026;SDS011;11177;50.966;10.070;2023-08-31T13:43:41;2.13;;;0.90;;
22026;SDS011;11177;50.966;10.070;2023-08-31T13:46:08;2.45;;;1.38;;
22026;SDS011;11177;50.966;10.070;2023-08-31T13:48:35;2.22;;;0.95;;
22026;SDS011;11177;50.966;10.070;2023-08-31T13:51:02;3.78;;;0.80;;
22026;SDS011;11177;50.966;10.070;2023-08-31T13:53:29;1.77;;;1.00;;
22026;SDS011;11177;50.966;10.070;2023-08-31T13:55:56;1.13;;;0.80;;
22026;SDS011;11177;50.966;10.070;2023-08-31T13:58:23;1.88;;;0.90;;
22026;SDS011;11177;50.966;10.070;2023-08-31T14:00:50;3.55;;;1.10;;
22026;SDS011;11177;50.966;10.070;2023-08-31T14:03:17;1.33;;;0.90;;
22026;SDS011;11177;50.966;10.070;2023-08-31T14:05:48;2.60;;;0.95;;
22026;SDS011;11177;50.966;10.070;2023-08-31T14:08:15;2.75;;;1.10;;
22026;SDS011;11177;50.966;10.070;2023-08-31T14:10:43;1.38;;;1.00;;
22026;SDS011;11177;50.966;10.070;2023-08-31T14:13:09;2.28;;;0.82;;
22026;SDS011;11177;50.966;10.070;2023-08-31T14:15:36;1.92;;;1.00;;
22026;SDS011;11177;50.966;10.070;2023-08-31T14:18:10;3.42;;;1.25;;
22026;SDS011;11177;50.966;10.070;2023-08-31T14:20:38;2.17;;;1.05;;
22026;SDS011;11177;50.966;10.070;2023-08-31T14:23:20;1.73;;;0.80;;
22026;SDS011;11177;50.966;10.070;2023-08-31T14:25:50;3.78;;;1.00;;
22026;SDS011;11177;50.966;10.070;2023-08-31T14:28:17;2.33;;;1.00;;
22026;SDS011;11177;50.966;10.070;2023-08-31T14:30:44;2.85;;;1.25;;
22026;SDS011;11177;50.966;10.070;2023-08-31T14:33:11;2.08;;;1.00;;
22026;SDS011;11177;50.966;10.070;2023-08-31T14:35:38;2.85;;;0.98;;
22026;SDS011;11177;50.966;10.070;2023-08-31T14:38:05;2.63;;;1.00;;
22026;SDS011;11177;50.966;10.070;2023-08-31T14:40:32;1.67;;;1.10;;
22026;SDS011;11177;50.966;10.070;2023-08-31T14:43:01;3.30;;;1.38;;
22026;SDS011;11177;50.966;10.070;2023-08-31T14:45:29;2.67;;;1.08;;
22026;SDS011;11177;50.966;10.070;2023-08-31T14:47:56;2.72;;;1.00;;
22026;SDS011;11177;50.966;10.070;2023-08-31T14:50:23;1.95;;;0.98;;